createdAt,value
2018-02-22T00:00:38.596Z,23.73
2018-02-22T00:03:06.087Z,30.67
2018-02-22T00:05:33.513Z,24.00
2018-02-22T00:08:00.983Z,23.33
2018-02-22T00:10:28.418Z,24.03
2018-02-22T00:12:55.864Z,33.17
2018-02-22T00:15:23.361Z,24.53
2018-02-22T00:17:51.136Z,25.33
2018-02-22T00:20:18.685Z,48.27
2018-02-22T00:22:46.124Z,25.70
2018-02-22T00:25:13.835Z,20.90
2018-02-22T00:27:42.084Z,26.50
2018-02-22T00:30:09.632Z,23.80
2018-02-22T00:32:37.074Z,25.20
2018-02-22T00:35:04.552Z,22.77
2018-02-22T00:37:32.110Z,22.93
2018-02-22T00:39:59.563Z,20.47
2018-02-22T00:42:27.120Z,23.17
2018-02-22T00:44:54.579Z,28.17
2018-02-22T00:47:22.042Z,26.60
2018-02-22T00:49:49.600Z,22.03
2018-02-22T00:52:17.056Z,22.20
2018-02-22T00:54:44.611Z,23.40
2018-02-22T00:57:12.056Z,27.57
2018-02-22T00:59:39.501Z,21.90
2018-02-22T01:02:06.984Z,25.47
2018-02-22T01:04:34.446Z,21.00
2018-02-22T01:07:01.893Z,24.57
2018-02-22T01:09:29.352Z,23.50
2018-02-22T01:11:56.791Z,21.30
2018-02-22T01:14:24.611Z,28.67
2018-02-22T01:16:52.814Z,22.70
2018-02-22T01:19:20.255Z,22.83
2018-02-22T01:21:48.463Z,25.20
2018-02-22T01:24:15.947Z,19.20
2018-02-22T01:26:43.392Z,22.23
2018-02-22T01:29:10.828Z,27.27
2018-02-22T01:31:38.311Z,21.60
2018-02-22T01:34:05.867Z,23.47
2018-02-22T01:36:33.321Z,19.93
2018-02-22T01:39:00.779Z,18.00
2018-02-22T01:41:28.240Z,21.67
2018-02-22T01:43:55.696Z,20.67
2018-02-22T01:46:23.155Z,22.60
2018-02-22T01:48:50.595Z,21.60
2018-02-22T01:51:18.059Z,19.07
2018-02-22T01:53:45.503Z,16.53
2018-02-22T01:56:12.975Z,24.27
2018-02-22T01:58:40.411Z,23.93
2018-02-22T02:01:07.853Z,20.20
2018-02-22T02:03:35.300Z,20.90
2018-02-22T02:06:03.524Z,22.73
2018-02-22T02:08:30.967Z,18.80
2018-02-22T02:10:58.443Z,22.20
2018-02-22T02:13:25.877Z,21.17
2018-02-22T02:15:53.335Z,22.83
2018-02-22T02:18:20.775Z,20.40
2018-02-22T02:20:48.264Z,23.10
2018-02-22T02:23:15.712Z,16.73
2018-02-22T02:25:44.099Z,18.20
2018-02-22T02:28:11.544Z,23.00
2018-02-22T02:30:39.016Z,17.80
2018-02-22T02:33:06.476Z,18.97
2018-02-22T02:35:33.928Z,20.90
2018-02-22T02:38:01.378Z,22.27
2018-02-22T02:40:28.839Z,19.43
2018-02-22T02:42:56.300Z,22.27
2018-02-22T02:45:23.736Z,17.77
2018-02-22T02:47:51.187Z,17.37
2018-02-22T02:50:18.701Z,20.57
2018-02-22T02:52:46.143Z,22.30
2018-02-22T02:55:13.683Z,22.57
2018-02-22T02:57:41.124Z,24.33
2018-02-22T03:00:08.574Z,19.30
2018-02-22T03:02:36.063Z,24.03
2018-02-22T03:05:03.517Z,25.73
2018-02-22T03:07:31.066Z,22.73
2018-02-22T03:09:58.503Z,17.67
2018-02-22T03:12:25.959Z,18.70
2018-02-22T03:14:53.390Z,21.50
2018-02-22T03:17:21.588Z,16.67
2018-02-22T03:19:49.023Z,23.47
2018-02-22T03:22:16.460Z,19.93
2018-02-22T03:24:43.993Z,24.63
2018-02-22T03:27:11.427Z,20.10
2018-02-22T03:29:38.879Z,19.93
2018-02-22T03:32:06.320Z,22.90
2018-02-22T03:34:34.639Z,23.77
2018-02-22T03:37:02.196Z,22.67
2018-02-22T03:39:29.644Z,23.73
2018-02-22T03:41:57.093Z,20.10
2018-02-22T03:44:24.542Z,20.60
2018-02-22T03:46:52.024Z,24.00
2018-02-22T03:49:19.464Z,21.00
2018-02-22T03:51:46.923Z,20.70
2018-02-22T03:54:14.396Z,29.60
2018-02-22T03:56:41.847Z,20.63
2018-02-22T03:59:09.308Z,22.40
2018-02-22T04:01:36.763Z,20.07
2018-02-22T04:04:04.217Z,23.97
2018-02-22T04:06:31.673Z,21.90
2018-02-22T04:08:59.135Z,20.93
2018-02-22T04:11:26.576Z,20.90
2018-02-22T04:13:54.017Z,18.77
2018-02-22T04:16:21.500Z,23.60
2018-02-22T04:18:48.944Z,20.37
2018-02-22T04:21:16.385Z,22.60
2018-02-22T04:23:43.821Z,19.53
2018-02-22T04:26:12.043Z,24.90
2018-02-22T04:28:39.486Z,20.13
2018-02-22T04:31:06.930Z,20.03
2018-02-22T04:33:34.364Z,18.23
2018-02-22T04:36:02.583Z,18.93
2018-02-22T04:38:30.048Z,17.73
2018-02-22T04:40:57.487Z,20.60
2018-02-22T04:43:24.927Z,17.90
2018-02-22T04:45:52.448Z,16.40
2018-02-22T04:48:19.972Z,18.47
2018-02-22T04:50:47.408Z,15.50
2018-02-22T04:53:14.889Z,18.87
2018-02-22T04:55:42.324Z,17.17
2018-02-22T04:58:10.036Z,17.37
2018-02-22T05:00:37.468Z,16.00
2018-02-22T05:03:04.924Z,17.67
2018-02-22T05:05:33.199Z,16.00
2018-02-22T05:08:00.757Z,17.00
2018-02-22T05:10:28.214Z,14.17
2018-02-22T05:12:56.519Z,15.10
2018-02-22T05:15:24.361Z,17.43
2018-02-22T05:17:52.540Z,13.27
2018-02-22T05:20:20.087Z,15.23
2018-02-22T05:22:47.547Z,18.43
2018-02-22T05:25:15.215Z,14.37
2018-02-22T05:27:42.664Z,19.20
2018-02-22T05:30:10.120Z,16.20
2018-02-22T05:32:37.831Z,14.23
2018-02-22T05:35:06.023Z,17.83
2018-02-22T05:37:33.755Z,17.00
2018-02-22T05:40:01.973Z,18.27
2018-02-22T05:42:29.502Z,19.53
2018-02-22T05:44:56.919Z,19.63
2018-02-22T05:47:24.367Z,17.73
2018-02-22T05:49:51.940Z,24.17
2018-02-22T05:52:19.487Z,25.57
2018-02-22T05:54:46.943Z,23.20
2018-02-22T05:57:14.401Z,19.70
2018-02-22T05:59:42.399Z,22.37
2018-02-22T06:02:09.928Z,20.67
2018-02-22T06:04:37.382Z,24.37
2018-02-22T06:07:04.823Z,20.53
2018-02-22T06:09:32.255Z,19.03
2018-02-22T06:11:59.756Z,24.67
2018-02-22T06:14:27.212Z,22.43
2018-02-22T06:16:54.675Z,17.27
2018-02-22T06:19:22.154Z,21.73
2018-02-22T06:21:49.685Z,19.77
2018-02-22T06:24:17.127Z,18.40
2018-02-22T06:26:44.596Z,21.27
2018-02-22T06:29:12.044Z,20.00
2018-02-22T06:31:39.503Z,19.00
2018-02-22T06:34:06.937Z,24.07
2018-02-22T06:36:34.401Z,26.13
2018-02-22T06:39:01.841Z,21.30
2018-02-22T06:41:29.278Z,20.83
2018-02-22T06:43:57.492Z,19.17
2018-02-22T06:46:24.971Z,20.23
2018-02-22T06:48:52.428Z,17.37
2018-02-22T06:51:19.863Z,15.70
2018-02-22T06:53:47.340Z,18.10
2018-02-22T06:56:14.801Z,21.57
2018-02-22T06:58:42.257Z,24.97
2018-02-22T07:01:09.804Z,16.37
2018-02-22T07:03:37.277Z,17.57
2018-02-22T07:06:04.735Z,17.20
2018-02-22T07:08:32.288Z,21.00
2018-02-22T07:10:59.737Z,19.50
2018-02-22T07:13:27.207Z,17.40
2018-02-22T07:15:54.662Z,17.90
2018-02-22T07:18:22.096Z,19.80
2018-02-22T07:20:50.104Z,15.73
2018-02-22T07:23:17.551Z,15.40
2018-02-22T07:25:45.100Z,20.20
2018-02-22T07:28:12.560Z,13.77
2018-02-22T07:30:40.899Z,21.03
2018-02-22T07:33:08.392Z,18.03
2018-02-22T07:35:35.965Z,14.07
2018-02-22T07:38:03.406Z,14.13
2018-02-22T07:40:31.636Z,16.20
2018-02-22T07:42:59.067Z,18.33
2018-02-22T07:45:26.575Z,21.73
2018-02-22T07:47:54.020Z,16.13
2018-02-22T07:50:21.512Z,18.27
2018-02-22T07:52:48.969Z,16.60
2018-02-22T07:55:16.408Z,15.50
2018-02-22T07:57:43.886Z,20.93
2018-02-22T08:00:11.378Z,16.60
2018-02-22T08:02:39.109Z,12.40
2018-02-22T08:05:06.535Z,21.73
2018-02-22T08:07:33.972Z,19.67
2018-02-22T08:10:01.668Z,18.43
2018-02-22T08:12:29.130Z,17.60
2018-02-22T08:14:57.308Z,17.47
2018-02-22T08:17:24.975Z,18.53
2018-02-22T08:19:52.432Z,18.83
2018-02-22T08:22:19.872Z,18.40
2018-02-22T08:24:47.307Z,20.00
2018-02-22T08:27:14.751Z,18.50
2018-02-22T08:29:42.971Z,16.43
2018-02-22T08:32:10.407Z,15.90
2018-02-22T08:34:37.856Z,16.80
2018-02-22T08:37:05.349Z,20.17
2018-02-22T08:39:33.228Z,14.30
2018-02-22T08:42:00.772Z,17.60
2018-02-22T08:44:29.054Z,16.67
2018-02-22T08:46:57.016Z,15.63
2018-02-22T08:49:24.478Z,18.90
2018-02-22T08:51:51.923Z,16.07
2018-02-22T08:54:19.483Z,19.27
2018-02-22T08:56:46.928Z,16.40
2018-02-22T08:59:14.359Z,16.20
2018-02-22T09:01:41.792Z,19.30
2018-02-22T09:04:10.032Z,16.93
2018-02-22T09:06:37.607Z,21.50
2018-02-22T09:09:05.035Z,15.93
2018-02-22T09:11:32.505Z,14.07
2018-02-22T09:13:59.967Z,16.37
2018-02-22T09:16:27.440Z,18.00
2018-02-22T09:18:54.895Z,18.67
2018-02-22T09:21:22.342Z,17.40
2018-02-22T09:23:49.775Z,17.83
2018-02-22T09:26:17.226Z,18.87
2018-02-22T09:28:44.703Z,17.00
2018-02-22T09:31:12.263Z,15.20
2018-02-22T09:33:39.787Z,13.03
2018-02-22T09:36:07.279Z,38.93
2018-02-22T09:38:34.839Z,21.33
2018-02-22T09:41:02.275Z,13.57
2018-02-22T09:43:29.747Z,13.83
2018-02-22T09:45:57.184Z,13.00
2018-02-22T09:48:24.664Z,13.07
2018-02-22T09:50:52.092Z,12.20
2018-02-22T09:53:19.531Z,16.83
2018-02-22T09:55:47.760Z,13.80
2018-02-22T09:58:15.191Z,8.73
2018-02-22T10:00:42.667Z,13.90
2018-02-22T10:03:10.099Z,14.50
2018-02-22T10:05:37.577Z,13.50
2018-02-22T10:08:05.016Z,13.90
2018-02-22T10:10:32.462Z,13.60
2018-02-22T10:12:59.951Z,13.70
2018-02-22T10:15:27.411Z,12.73
2018-02-22T10:17:54.966Z,14.57
2018-02-22T10:20:22.423Z,13.63
2018-02-22T10:22:49.861Z,15.13
2018-02-22T10:25:17.343Z,14.70
2018-02-22T10:27:45.327Z,16.63
2018-02-22T10:30:12.777Z,13.33
2018-02-22T10:32:40.211Z,16.40
2018-02-22T10:35:07.676Z,13.27
2018-02-22T10:37:35.136Z,14.87
2018-02-22T10:40:02.576Z,14.30
2018-02-22T10:42:30.044Z,13.40
2018-02-22T10:44:57.503Z,14.20
2018-02-22T10:47:25.476Z,15.60
2018-02-22T10:49:52.916Z,17.40
2018-02-22T10:52:20.378Z,15.10
2018-02-22T10:54:47.854Z,13.37
2018-02-22T10:57:15.276Z,13.53
2018-02-22T10:59:42.760Z,16.13
2018-02-22T11:02:15.884Z,19.33
2018-02-22T11:04:44.120Z,12.90
2018-02-22T11:07:11.563Z,18.17
2018-02-22T11:09:39.000Z,13.13
2018-02-22T11:12:06.431Z,16.23
2018-02-22T11:14:35.540Z,14.03
2018-02-22T11:17:02.927Z,12.03
2018-02-22T11:19:30.396Z,14.70
2018-02-22T11:21:57.852Z,14.43
2018-02-22T11:24:25.320Z,17.60
2018-02-22T11:26:52.763Z,12.60
2018-02-22T11:29:20.192Z,10.93
2018-02-22T11:31:47.667Z,14.70
2018-02-22T11:34:15.144Z,14.87
2018-02-22T11:36:42.576Z,14.40
2018-02-22T11:39:10.053Z,14.33
2018-02-22T11:41:37.504Z,13.63
2018-02-22T11:44:04.995Z,11.20
2018-02-22T11:46:32.380Z,9.90
2018-02-22T11:48:59.831Z,11.27
2018-02-22T11:51:27.331Z,9.77
2018-02-22T11:53:54.779Z,12.00
2018-02-22T11:56:22.252Z,12.60
2018-02-22T11:58:49.704Z,12.70
2018-02-22T12:01:17.160Z,10.00
2018-02-22T12:03:44.595Z,12.80
2018-02-22T12:06:12.821Z,10.03
2018-02-22T12:08:40.467Z,10.03
2018-02-22T12:11:07.911Z,11.33
2018-02-22T12:13:35.372Z,7.90
2018-02-22T12:16:02.828Z,12.67
2018-02-22T12:18:30.284Z,8.00
2018-02-22T12:20:57.837Z,8.47
2018-02-22T12:23:25.299Z,8.93
2018-02-22T12:25:52.770Z,9.50
2018-02-22T12:28:20.313Z,9.07
2018-02-22T12:30:47.740Z,8.20
2018-02-22T12:33:15.176Z,9.10
2018-02-22T12:35:43.395Z,8.50
2018-02-22T12:38:10.836Z,11.20
2018-02-22T12:40:38.280Z,9.47
2018-02-22T12:43:05.728Z,11.47
2018-02-22T12:45:33.228Z,9.37
2018-02-22T12:48:00.665Z,11.80
2018-02-22T12:50:28.111Z,11.30
2018-02-22T12:52:55.599Z,10.87
2018-02-22T12:55:23.033Z,9.87
2018-02-22T12:57:50.472Z,8.37
2018-02-22T13:00:17.968Z,8.03
2018-02-22T13:02:45.403Z,9.30
2018-02-22T13:05:12.883Z,8.23
2018-02-22T13:07:40.443Z,12.80
2018-02-22T13:10:07.871Z,9.43
2018-02-22T13:12:35.303Z,8.73
2018-02-22T13:15:03.528Z,7.97
2018-02-22T13:17:30.983Z,12.97
2018-02-22T13:19:58.415Z,5.07
2018-02-22T13:22:25.899Z,11.83
2018-02-22T13:24:53.680Z,9.53
2018-02-22T13:27:21.223Z,11.50
2018-02-22T13:29:48.679Z,10.07
2018-02-22T13:32:16.136Z,10.93
2018-02-22T13:34:43.570Z,9.00
2018-02-22T13:37:22.980Z,8.10
2018-02-22T13:39:51.199Z,8.70
2018-02-22T13:42:18.659Z,6.03
2018-02-22T13:44:57.801Z,8.00
2018-02-22T13:47:25.228Z,9.53
2018-02-22T13:50:04.621Z,8.23
2018-02-22T13:52:32.863Z,7.27
2018-02-22T13:55:00.414Z,9.57
2018-02-22T13:57:27.876Z,7.63
2018-02-22T13:59:55.320Z,9.63
2018-02-22T14:02:24.903Z,6.73
2018-02-22T14:04:52.396Z,11.40
2018-02-22T14:07:19.859Z,11.20
2018-02-22T14:09:47.300Z,10.57
2018-02-22T14:12:14.775Z,7.10
2018-02-22T14:14:42.239Z,7.80
2018-02-22T14:17:09.823Z,7.63
2018-02-22T14:19:37.248Z,7.53
2018-02-22T14:22:04.801Z,8.30
2018-02-22T14:24:32.234Z,8.93
2018-02-22T14:26:59.656Z,9.13
2018-02-22T14:29:27.866Z,5.83
2018-02-22T14:31:55.296Z,8.43
2018-02-22T14:34:23.516Z,5.90
2018-02-22T14:36:50.972Z,6.90
2018-02-22T14:39:18.391Z,8.23
2018-02-22T14:41:45.910Z,6.20
2018-02-22T14:44:13.443Z,7.63
2018-02-22T14:46:40.866Z,6.67
2018-02-22T14:49:08.296Z,9.17
2018-02-22T14:51:36.504Z,7.57
2018-02-22T14:54:03.996Z,7.57
2018-02-22T14:56:31.547Z,8.50
2018-02-22T14:58:59.007Z,6.80
2018-02-22T15:01:26.478Z,7.40
2018-02-22T15:03:53.923Z,9.23
2018-02-22T15:06:21.383Z,6.87
2018-02-22T15:08:48.835Z,8.20
2018-02-22T15:11:16.299Z,7.23
2018-02-22T15:13:43.752Z,7.10
2018-02-22T15:16:11.195Z,8.20
2018-02-22T15:18:38.644Z,10.23
2018-02-22T15:21:06.120Z,10.50
2018-02-22T15:23:33.575Z,6.90
2018-02-22T15:26:01.832Z,7.57
2018-02-22T15:28:29.257Z,8.03
2018-02-22T15:30:57.455Z,9.70
2018-02-22T15:33:24.885Z,6.10
2018-02-22T15:35:53.096Z,8.43
2018-02-22T15:38:20.527Z,8.00
2018-02-22T15:40:47.987Z,10.13
2018-02-22T15:43:15.415Z,8.90
2018-02-22T15:45:42.944Z,13.30
2018-02-22T15:48:10.395Z,7.07
2018-02-22T15:50:37.824Z,6.97
2018-02-22T15:53:05.250Z,8.80
2018-02-22T15:55:33.481Z,6.87
2018-02-22T15:58:00.941Z,8.57
2018-02-22T16:00:28.371Z,8.80
2018-02-22T16:02:55.805Z,7.43
2018-02-22T16:05:24.007Z,8.60
2018-02-22T16:07:51.440Z,7.23
2018-02-22T16:10:18.868Z,8.60
2018-02-22T16:12:46.415Z,7.40
2018-02-22T16:15:13.851Z,8.77
2018-02-22T16:17:41.288Z,8.30
2018-02-22T16:20:08.747Z,9.80
2018-02-22T16:22:36.177Z,9.83
2018-02-22T16:25:04.400Z,8.23
2018-02-22T16:27:31.876Z,8.20
2018-02-22T16:29:59.271Z,6.13
2018-02-22T16:32:26.767Z,10.60
2018-02-22T16:34:54.227Z,6.23
2018-02-22T16:37:21.676Z,11.67
2018-02-22T16:39:49.105Z,7.43
2018-02-22T16:42:16.545Z,10.63
2018-02-22T16:44:44.780Z,11.20
2018-02-22T16:47:12.224Z,9.10
2018-02-22T16:49:39.661Z,8.67
2018-02-22T16:52:07.144Z,8.70
2018-02-22T16:54:34.601Z,8.00
2018-02-22T16:57:02.040Z,8.33
2018-02-22T16:59:29.464Z,9.87
2018-02-22T17:01:57.671Z,9.10
2018-02-22T17:04:25.143Z,5.80
2018-02-22T17:06:52.572Z,7.57
2018-02-22T17:09:20.070Z,9.13
2018-02-22T17:11:47.443Z,9.07
2018-02-22T17:14:14.972Z,9.50
2018-02-22T17:16:42.403Z,29.60
2018-02-22T17:19:09.856Z,17.57
2018-02-22T17:21:37.292Z,30.03
2018-02-22T17:24:04.805Z,22.10
2018-02-22T17:26:37.924Z,15.83
2018-02-22T17:29:11.960Z,14.60
2018-02-22T17:31:45.159Z,23.27
2018-02-22T17:34:12.754Z,25.47
2018-02-22T17:36:44.115Z,12.60
2018-02-22T17:42:20.944Z,11.87
2018-02-22T17:44:49.156Z,12.90
2018-02-22T17:47:16.625Z,14.30
2018-02-22T17:49:44.080Z,21.90
2018-02-22T17:52:11.547Z,13.97
2018-02-22T17:54:39.006Z,11.20
2018-02-22T17:57:06.435Z,18.33
2018-02-22T17:59:33.868Z,9.90
2018-02-22T18:02:01.308Z,11.27
2018-02-22T18:04:29.546Z,10.87
2018-02-22T18:06:56.988Z,10.37
2018-02-22T18:09:24.988Z,8.40
2018-02-22T18:11:52.443Z,11.27
2018-02-22T18:14:19.871Z,11.67
2018-02-22T18:16:47.315Z,10.77
2018-02-22T18:19:14.780Z,11.13
2018-02-22T18:21:42.207Z,10.13
2018-02-22T18:24:09.791Z,11.47
2018-02-22T18:26:37.212Z,11.83
2018-02-22T18:29:05.410Z,6.83
2018-02-22T18:31:32.900Z,8.60
2018-02-22T18:34:00.464Z,8.83
2018-02-22T18:36:27.892Z,7.87
2018-02-22T18:39:00.968Z,9.57
2018-02-22T18:41:28.709Z,10.73
2018-02-22T18:44:02.735Z,8.00
2018-02-22T18:46:30.163Z,10.73
2018-02-22T18:48:57.599Z,8.10
2018-02-22T18:51:25.141Z,9.17
2018-02-22T18:53:53.291Z,10.87
2018-02-22T18:56:20.723Z,12.93
2018-02-22T18:58:48.920Z,9.03
2018-02-22T19:01:16.351Z,15.93
2018-02-22T19:03:44.568Z,14.67
2018-02-22T19:06:12.026Z,10.30
2018-02-22T19:08:39.444Z,9.77
2018-02-22T19:11:07.649Z,20.33
2018-02-22T19:13:35.068Z,8.87
2018-02-22T19:16:03.279Z,10.80
2018-02-22T19:18:30.768Z,11.68
2018-02-22T19:20:58.201Z,15.30
2018-02-22T19:23:25.636Z,15.47
2018-02-22T19:25:53.113Z,8.27
2018-02-22T19:28:21.267Z,10.13
2018-02-22T19:30:48.692Z,9.17
2018-02-22T19:33:16.887Z,9.55
2018-02-22T19:35:44.328Z,10.37
2018-02-22T19:38:12.524Z,10.47
2018-02-22T19:40:40.000Z,8.93
2018-02-22T19:43:07.431Z,12.10
2018-02-22T19:45:35.632Z,38.13
2018-02-22T19:48:03.063Z,23.27
2018-02-22T19:50:30.499Z,14.23
2018-02-22T19:52:58.687Z,8.27
2018-02-22T19:55:26.892Z,6.93
2018-02-22T19:57:54.331Z,10.17
2018-02-22T20:00:21.761Z,9.25
2018-02-22T20:02:49.963Z,10.48
2018-02-22T20:05:17.407Z,13.15
2018-02-22T20:07:45.612Z,10.75
2018-02-22T20:10:13.072Z,11.27
2018-02-22T20:12:40.503Z,11.63
2018-02-22T20:15:07.949Z,8.50
2018-02-22T20:17:36.165Z,14.33
2018-02-22T20:20:03.587Z,34.40
2018-02-22T20:22:31.021Z,9.93
2018-02-22T20:24:58.473Z,12.17
2018-02-22T20:27:25.907Z,13.93
2018-02-22T20:29:53.335Z,9.60
2018-02-22T20:32:20.772Z,10.90
2018-02-22T20:34:48.206Z,13.80
2018-02-22T20:37:16.431Z,11.53
2018-02-22T20:39:43.871Z,12.37
2018-02-22T20:42:11.304Z,16.37
2018-02-22T20:44:39.537Z,11.07
2018-02-22T20:47:06.956Z,9.77
2018-02-22T20:49:34.383Z,16.30
2018-02-22T20:52:02.597Z,13.83
2018-02-22T20:54:30.028Z,13.20
2018-02-22T20:56:58.226Z,11.27
2018-02-22T20:59:25.668Z,12.57
2018-02-22T21:01:53.121Z,14.93
2018-02-22T21:04:20.547Z,11.20
2018-02-22T21:06:47.974Z,15.43
2018-02-22T21:09:15.416Z,12.48
2018-02-22T21:11:42.851Z,11.80
2018-02-22T21:14:10.288Z,13.93
2018-02-22T21:16:38.494Z,11.53
2018-02-22T21:19:05.925Z,10.17
2018-02-22T21:21:34.140Z,10.07
2018-02-22T21:24:01.568Z,16.23
2018-02-22T21:26:28.996Z,11.20
2018-02-22T21:28:57.204Z,16.53
2018-02-22T21:31:24.644Z,11.60
2018-02-22T21:33:52.846Z,11.13
2018-02-22T21:36:20.275Z,11.43
2018-02-22T21:38:47.715Z,11.83
2018-02-22T21:41:15.147Z,27.87
2018-02-22T21:43:42.604Z,28.35
2018-02-22T21:46:10.057Z,15.47
2018-02-22T21:48:37.503Z,22.33
2018-02-22T21:51:04.944Z,25.23
2018-02-22T21:53:32.371Z,13.20
2018-02-22T21:56:00.597Z,11.50
2018-02-22T21:58:28.039Z,10.20
2018-02-22T22:00:55.508Z,14.47
2018-02-22T22:03:22.939Z,31.93
2018-02-22T22:05:50.367Z,17.90
2018-02-22T22:08:18.591Z,22.70
2018-02-22T22:10:46.767Z,14.30
2018-02-22T22:13:14.199Z,27.40
2018-02-22T22:15:41.644Z,13.33
2018-02-22T22:18:09.088Z,39.40
2018-02-22T22:20:37.287Z,34.47
2018-02-22T22:23:04.731Z,32.13
2018-02-22T22:25:32.228Z,28.13
2018-02-22T22:27:59.700Z,20.00
2018-02-22T22:30:29.498Z,44.10
2018-02-22T22:32:56.958Z,16.87
2018-02-22T22:35:24.619Z,21.77
2018-02-22T22:37:52.281Z,21.20
2018-02-22T22:40:19.731Z,33.17
2018-02-22T22:42:47.180Z,17.57
2018-02-22T22:45:14.659Z,15.83
2018-02-22T22:47:42.115Z,14.00
2018-02-22T22:50:09.562Z,19.77
2018-02-22T22:52:36.993Z,30.93
2018-02-22T22:55:04.434Z,22.57
2018-02-22T22:57:32.035Z,28.40
2018-02-22T22:59:59.488Z,14.40
2018-02-22T23:02:26.949Z,11.90
2018-02-22T23:04:54.410Z,14.80
2018-02-22T23:07:21.841Z,12.03
2018-02-22T23:09:49.269Z,16.80
2018-02-22T23:12:18.001Z,17.13
2018-02-22T23:14:45.434Z,31.80
2018-02-22T23:17:13.547Z,16.47
2018-02-22T23:19:40.968Z,28.77
2018-02-22T23:22:08.444Z,19.17
2018-02-22T23:24:35.896Z,17.90
2018-02-22T23:27:03.330Z,11.90
2018-02-22T23:29:30.775Z,12.23
2018-02-22T23:31:58.203Z,17.23
2018-02-22T23:34:26.401Z,14.17
2018-02-22T23:36:53.836Z,11.40
2018-02-22T23:39:22.031Z,11.33
2018-02-22T23:44:53.516Z,11.27
2018-02-22T23:47:20.963Z,12.93
2018-02-22T23:49:48.391Z,11.30
2018-02-22T23:52:15.824Z,20.13
2018-02-22T23:54:43.260Z,9.93
2018-02-22T23:57:10.744Z,10.50
2018-02-22T23:59:38.172Z,13.30
